createdAt,value
2023-01-22T00:01:19.596Z,36.67
2023-01-22T00:03:46.918Z,36.57
2023-01-22T00:06:13.842Z,36.10
2023-01-22T00:08:40.170Z,37.47
2023-01-22T00:11:06.621Z,35.37
2023-01-22T00:13:33.005Z,38.10
2023-01-22T00:16:00.242Z,33.37
2023-01-22T00:18:26.851Z,30.67
2023-01-22T00:20:55.288Z,36.70
2023-01-22T00:23:22.219Z,34.80
2023-01-22T00:25:48.720Z,34.00
2023-01-22T00:28:16.699Z,31.43
2023-01-22T00:30:43.435Z,32.63
2023-01-22T00:33:09.828Z,32.90
2023-01-22T00:35:36.250Z,33.93
2023-01-22T00:38:03.722Z,33.27
2023-01-22T00:40:30.118Z,37.67
2023-01-22T00:42:56.733Z,32.23
2023-01-22T00:45:23.072Z,34.70
2023-01-22T00:47:49.426Z,30.07
2023-01-22T00:50:16.346Z,33.43
2023-01-22T00:52:42.944Z,34.53
2023-01-22T00:55:09.581Z,34.07
2023-01-22T00:57:35.931Z,35.03
2023-01-22T01:00:02.404Z,36.13
2023-01-22T01:02:29.932Z,32.23
2023-01-22T01:04:56.818Z,27.07
2023-01-22T01:07:23.814Z,36.00
2023-01-22T01:09:50.439Z,30.67
2023-01-22T01:12:16.852Z,36.60
2023-01-22T01:14:43.335Z,32.10
2023-01-22T01:17:09.692Z,30.27
2023-01-22T01:19:36.274Z,29.73
2023-01-22T01:22:03.178Z,29.73
2023-01-22T01:24:29.650Z,26.07
2023-01-22T01:26:56.031Z,28.70
2023-01-22T01:29:22.364Z,28.23
2023-01-22T01:31:53.076Z,30.63
2023-01-22T01:34:19.575Z,28.10
2023-01-22T01:36:49.111Z,30.30
2023-01-22T01:39:15.941Z,26.90
2023-01-22T01:41:42.329Z,33.73
2023-01-22T01:44:16.066Z,28.93
2023-01-22T01:46:53.280Z,27.63
2023-01-22T01:49:28.115Z,28.33
2023-01-22T01:51:59.738Z,33.70
2023-01-22T01:54:27.389Z,29.90
2023-01-22T01:57:01.134Z,32.10
2023-01-22T01:59:27.611Z,28.27
2023-01-22T02:01:55.665Z,23.90
2023-01-22T02:04:23.878Z,29.20
2023-01-22T02:06:50.345Z,31.27
2023-01-22T02:09:16.933Z,26.73
2023-01-22T02:11:43.444Z,26.57
2023-01-22T02:14:20.100Z,29.37
2023-01-22T02:16:46.462Z,30.67
2023-01-22T02:19:12.794Z,28.57
2023-01-22T02:21:44.439Z,30.03
2023-01-22T02:24:16.304Z,26.90
2023-01-22T02:26:45.517Z,26.57
2023-01-22T02:29:16.324Z,25.53
2023-01-22T02:31:42.894Z,28.17
2023-01-22T02:34:09.945Z,29.77
2023-01-22T02:36:37.904Z,23.00
2023-01-22T02:39:04.442Z,28.03
2023-01-22T02:41:32.172Z,26.30
2023-01-22T02:43:59.659Z,28.80
2023-01-22T02:46:26.046Z,23.80
2023-01-22T02:48:52.655Z,19.00
2023-01-22T02:51:19.359Z,24.93
2023-01-22T02:53:48.179Z,18.47
2023-01-22T02:56:14.813Z,22.33
2023-01-22T02:58:41.306Z,23.43
2023-01-22T03:01:20.293Z,25.03
2023-01-22T03:03:49.504Z,21.53
2023-01-22T03:06:16.336Z,18.07
2023-01-22T03:08:43.597Z,20.27
2023-01-22T03:11:12.935Z,17.87
2023-01-22T03:13:58.116Z,19.77
2023-01-22T03:16:43.190Z,25.37
2023-01-22T03:19:31.192Z,19.57
2023-01-22T03:21:57.640Z,21.53
2023-01-22T03:24:25.685Z,17.90
2023-01-22T03:26:52.122Z,20.87
2023-01-22T03:29:18.593Z,20.93
2023-01-22T03:31:48.309Z,22.80
2023-01-22T03:34:19.543Z,23.43
2023-01-22T03:36:46.044Z,20.10
2023-01-22T03:39:13.219Z,23.87
2023-01-22T03:41:39.810Z,21.50
2023-01-22T03:44:09.194Z,28.73
2023-01-22T03:46:36.495Z,19.80
2023-01-22T03:49:03.709Z,20.20
2023-01-22T03:51:30.589Z,20.70
2023-01-22T03:53:58.339Z,24.10
2023-01-22T03:56:26.282Z,20.30
2023-01-22T03:58:57.903Z,22.43
2023-01-22T04:01:26.773Z,20.17
2023-01-22T04:03:54.969Z,18.47
2023-01-22T04:06:24.893Z,22.03
2023-01-22T04:08:54.478Z,27.57
2023-01-22T04:11:25.276Z,19.57
2023-01-22T04:13:54.571Z,22.67
2023-01-22T04:16:21.416Z,20.50
2023-01-22T04:19:06.385Z,26.53
2023-01-22T04:21:53.555Z,24.60
2023-01-22T04:24:19.927Z,20.63
2023-01-22T04:26:47.352Z,22.53
2023-01-22T04:29:16.796Z,23.40
2023-01-22T04:31:44.245Z,23.47
2023-01-22T04:34:47.344Z,25.83
2023-01-22T04:37:20.239Z,25.50
2023-01-22T04:39:46.617Z,22.17
2023-01-22T04:42:12.986Z,22.60
2023-01-22T04:44:39.402Z,21.70
2023-01-22T04:47:07.479Z,22.57
2023-01-22T04:49:34.787Z,23.63
2023-01-22T04:52:01.419Z,26.70
2023-01-22T04:54:29.131Z,20.53
2023-01-22T04:56:55.474Z,19.83
2023-01-22T04:59:21.903Z,25.87
2023-01-22T05:01:50.836Z,23.57
2023-01-22T05:04:19.006Z,16.77
2023-01-22T05:06:46.194Z,26.00
2023-01-22T05:09:13.629Z,23.50
2023-01-22T05:11:50.931Z,20.90
2023-01-22T05:14:17.630Z,21.60
2023-01-22T05:16:46.889Z,22.07
2023-01-22T05:19:13.239Z,23.57
2023-01-22T05:21:39.619Z,19.30
2023-01-22T05:24:08.077Z,23.53
2023-01-22T05:26:34.869Z,24.83
2023-01-22T05:29:10.212Z,27.47
2023-01-22T05:31:59.964Z,19.57
2023-01-22T05:34:30.311Z,21.43
2023-01-22T05:36:56.887Z,27.03
2023-01-22T05:39:25.096Z,22.30
2023-01-22T05:41:54.271Z,22.70
2023-01-22T05:44:20.675Z,20.73
2023-01-22T05:46:51.356Z,19.77
2023-01-22T05:49:29.578Z,20.87
2023-01-22T05:51:58.288Z,21.53
2023-01-22T05:54:24.911Z,20.53
2023-01-22T05:56:51.919Z,23.37
2023-01-22T05:59:18.312Z,18.43
2023-01-22T06:01:51.513Z,19.83
2023-01-22T06:04:18.292Z,19.50
2023-01-22T06:06:44.634Z,19.03
2023-01-22T06:09:12.991Z,22.07
2023-01-22T06:11:40.074Z,18.43
2023-01-22T06:14:07.695Z,18.30
2023-01-22T06:16:34.998Z,18.77
2023-01-22T06:19:12.415Z,18.97
2023-01-22T06:21:50.518Z,21.20
2023-01-22T06:24:17.749Z,15.90
2023-01-22T06:26:44.232Z,18.47
2023-01-22T06:29:13.104Z,23.67
2023-01-22T06:31:41.103Z,19.67
2023-01-22T06:34:08.886Z,18.00
2023-01-22T06:36:35.665Z,18.20
2023-01-22T06:39:02.755Z,21.63
2023-01-22T06:41:39.547Z,15.77
2023-01-22T06:44:09.518Z,18.80
2023-01-22T06:46:36.816Z,19.67
2023-01-22T06:49:06.389Z,19.77
2023-01-22T06:51:32.874Z,17.30
2023-01-22T06:53:59.572Z,19.23
2023-01-22T06:56:27.246Z,22.60
2023-01-22T06:58:55.742Z,20.80
2023-01-22T07:01:22.245Z,16.53
2023-01-22T07:03:48.672Z,18.53
2023-01-22T07:06:18.595Z,21.60
2023-01-22T07:08:45.217Z,16.93
2023-01-22T07:11:11.825Z,17.63
2023-01-22T07:13:38.167Z,20.87
2023-01-22T07:16:05.395Z,18.47
2023-01-22T07:18:32.020Z,16.77
2023-01-22T07:21:03.504Z,18.60
2023-01-22T07:23:30.762Z,18.13
2023-01-22T07:25:57.440Z,15.60
2023-01-22T07:28:24.073Z,15.60
2023-01-22T07:30:50.659Z,15.63
2023-01-22T07:33:18.757Z,19.00
2023-01-22T07:35:53.179Z,15.33
2023-01-22T07:38:19.522Z,16.83
2023-01-22T07:40:45.878Z,16.40
2023-01-22T07:43:14.952Z,16.27
2023-01-22T07:45:41.584Z,17.00
2023-01-22T07:48:10.626Z,17.60
2023-01-22T07:50:39.932Z,15.73
2023-01-22T07:53:07.463Z,15.57
2023-01-22T07:55:33.860Z,16.50
2023-01-22T07:58:03.607Z,15.20
2023-01-22T08:00:30.552Z,16.93
2023-01-22T08:02:57.007Z,15.10
2023-01-22T08:05:23.482Z,12.30
2023-01-22T08:07:49.932Z,15.93
2023-01-22T08:10:17.070Z,17.80
2023-01-22T08:12:46.178Z,16.67
2023-01-22T08:15:13.899Z,14.80
2023-01-22T08:17:40.676Z,20.27
2023-01-22T08:20:08.293Z,14.73
2023-01-22T08:22:34.694Z,15.00
2023-01-22T08:25:01.061Z,14.60
2023-01-22T08:27:27.454Z,14.17
2023-01-22T08:29:53.783Z,15.00
2023-01-22T08:32:20.248Z,16.53
2023-01-22T08:34:46.658Z,15.27
2023-01-22T08:37:13.094Z,17.77
2023-01-22T08:39:39.460Z,16.30
2023-01-22T08:42:05.821Z,19.13
2023-01-22T08:44:32.173Z,21.17
2023-01-22T08:46:58.575Z,16.20
2023-01-22T08:49:25.143Z,17.33
2023-01-22T08:51:51.666Z,15.30
2023-01-22T08:54:18.397Z,19.07
2023-01-22T08:56:44.831Z,17.83
2023-01-22T08:59:11.213Z,17.00
2023-01-22T09:01:37.541Z,17.40
2023-01-22T09:04:09.427Z,19.53
2023-01-22T09:06:37.357Z,15.37
2023-01-22T09:09:04.141Z,17.30
2023-01-22T09:11:31.312Z,18.77
2023-01-22T09:13:58.085Z,14.27
2023-01-22T09:16:25.908Z,16.63
2023-01-22T09:18:53.218Z,19.33
2023-01-22T09:21:19.945Z,16.20
2023-01-22T09:23:46.347Z,18.70
2023-01-22T09:26:12.701Z,16.47
2023-01-22T09:28:39.053Z,18.80
2023-01-22T09:31:05.458Z,14.43
2023-01-22T09:33:31.853Z,20.60
2023-01-22T09:36:12.614Z,15.90
2023-01-22T09:38:39.299Z,15.23
2023-01-22T09:41:34.633Z,18.17
2023-01-22T09:44:09.321Z,18.20
2023-01-22T09:46:44.123Z,17.30
2023-01-22T09:49:32.145Z,16.23
2023-01-22T09:52:00.842Z,14.23
2023-01-22T09:54:29.134Z,16.23
2023-01-22T09:57:01.987Z,15.80
2023-01-22T09:59:35.968Z,18.67
2023-01-22T10:02:21.472Z,14.30
2023-01-22T10:04:52.080Z,15.07
2023-01-22T10:07:32.347Z,15.63
2023-01-22T10:10:03.622Z,18.17
2023-01-22T10:12:30.216Z,14.57
2023-01-22T10:14:56.982Z,17.73
2023-01-22T10:17:28.503Z,20.13
2023-01-22T10:19:59.567Z,17.60
2023-01-22T10:22:27.070Z,15.20
2023-01-22T10:24:53.852Z,16.63
2023-01-22T10:27:24.603Z,14.97
2023-01-22T10:30:07.400Z,20.17
2023-01-22T10:32:33.841Z,15.47
2023-01-22T10:35:20.938Z,13.93
2023-01-22T10:37:55.776Z,18.40
2023-01-22T10:40:37.763Z,17.87
2023-01-22T10:43:06.148Z,16.23
2023-01-22T10:45:32.657Z,15.47
2023-01-22T10:48:15.942Z,14.17
2023-01-22T10:50:43.899Z,18.27
2023-01-22T10:53:31.344Z,15.33
2023-01-22T10:55:59.656Z,18.30
2023-01-22T10:58:34.203Z,16.23
2023-01-22T11:01:21.646Z,15.87
2023-01-22T11:03:48.065Z,16.73
2023-01-22T11:06:22.078Z,16.70
2023-01-22T11:08:53.392Z,17.13
2023-01-22T11:11:26.117Z,16.73
2023-01-22T11:14:01.221Z,15.93
2023-01-22T11:16:31.895Z,18.00
2023-01-22T11:19:02.893Z,16.93
2023-01-22T11:21:33.735Z,16.90
2023-01-22T11:24:13.960Z,16.27
2023-01-22T11:27:04.174Z,14.50
2023-01-22T11:29:48.544Z,17.63
2023-01-22T11:32:17.794Z,20.87
2023-01-22T11:35:05.015Z,17.30
2023-01-22T11:37:49.512Z,17.10
2023-01-22T11:40:28.429Z,17.30
2023-01-22T11:43:11.752Z,16.43
2023-01-22T11:45:56.574Z,16.03
2023-01-22T11:48:47.659Z,21.50
2023-01-22T11:51:26.165Z,18.33
2023-01-22T11:54:06.160Z,19.87
2023-01-22T11:57:09.837Z,19.83
2023-01-22T12:00:15.801Z,19.30
2023-01-22T12:03:06.098Z,19.00
2023-01-22T12:05:57.916Z,19.40
2023-01-22T12:08:36.326Z,16.03
2023-01-22T12:11:11.731Z,19.83
2023-01-22T12:13:44.043Z,20.80
2023-01-22T12:16:19.485Z,19.07
2023-01-22T12:19:16.804Z,19.13
2023-01-22T12:21:54.949Z,18.77
2023-01-22T12:24:50.074Z,15.77
2023-01-22T12:27:26.768Z,19.40
2023-01-22T12:30:01.733Z,18.40
2023-01-22T12:32:30.531Z,20.90
2023-01-22T12:35:17.902Z,18.00
2023-01-22T12:38:12.429Z,20.70
2023-01-22T12:41:04.404Z,18.80
2023-01-22T12:43:42.040Z,21.07
2023-01-22T12:46:21.571Z,19.77
2023-01-22T12:49:03.205Z,26.33
2023-01-22T12:51:42.304Z,22.90
2023-01-22T12:54:09.851Z,18.13
2023-01-22T12:56:36.241Z,24.90
2023-01-22T12:59:02.687Z,22.03
2023-01-22T13:01:35.166Z,22.80
2023-01-22T13:04:06.973Z,33.30
2023-01-22T13:06:38.787Z,24.20
2023-01-22T13:09:22.415Z,26.10
2023-01-22T13:11:48.751Z,18.70
2023-01-22T13:14:21.297Z,25.23
2023-01-22T13:16:54.494Z,20.10
2023-01-22T13:19:31.474Z,21.70
2023-01-22T13:22:00.138Z,22.37
2023-01-22T13:24:26.585Z,20.33
2023-01-22T13:27:03.283Z,27.37
2023-01-22T13:29:36.692Z,31.67
2023-01-22T13:32:15.730Z,26.27
2023-01-22T13:34:42.208Z,36.17
2023-01-22T13:37:27.657Z,24.03
2023-01-22T13:39:54.040Z,20.73
2023-01-22T13:42:21.155Z,28.73
2023-01-22T13:44:50.583Z,22.63
2023-01-22T13:47:32.958Z,21.80
2023-01-22T13:49:59.904Z,24.03
2023-01-22T13:52:28.449Z,25.53
2023-01-22T13:55:01.914Z,21.03
2023-01-22T13:57:28.341Z,23.23
2023-01-22T14:00:00.315Z,28.37
2023-01-22T14:02:35.509Z,22.50
2023-01-22T14:05:02.163Z,26.30
2023-01-22T14:07:34.594Z,22.27
2023-01-22T14:10:22.545Z,22.17
2023-01-22T14:12:59.806Z,23.93
2023-01-22T14:15:26.395Z,21.97
2023-01-22T14:17:52.756Z,31.90
2023-01-22T14:20:19.671Z,20.63
2023-01-22T14:22:49.541Z,25.70
2023-01-22T14:25:16.126Z,24.70
2023-01-22T14:27:49.479Z,25.20
2023-01-22T14:30:19.011Z,26.13
2023-01-22T14:32:45.930Z,27.73
2023-01-22T14:35:26.269Z,26.70
2023-01-22T14:37:53.576Z,28.73
2023-01-22T14:40:21.996Z,21.33
2023-01-22T14:42:48.940Z,30.77
2023-01-22T14:45:17.399Z,23.73
2023-01-22T14:47:44.265Z,20.93
2023-01-22T14:50:11.417Z,22.83
2023-01-22T14:52:38.253Z,24.53
2023-01-22T14:55:05.574Z,26.13
2023-01-22T14:57:32.004Z,23.23
2023-01-22T14:59:58.348Z,25.07
2023-01-22T15:02:24.756Z,29.63
2023-01-22T15:04:51.311Z,23.27
2023-01-22T15:07:17.649Z,30.03
2023-01-22T15:09:44.050Z,30.10
2023-01-22T15:12:10.655Z,26.30
2023-01-22T15:14:37.103Z,23.30
2023-01-22T15:17:03.476Z,35.47
2023-01-22T15:19:38.954Z,28.73
2023-01-22T15:22:07.195Z,34.87
2023-01-22T15:24:33.525Z,26.40
2023-01-22T15:27:00.493Z,33.17
2023-01-22T15:29:26.938Z,31.10
2023-01-22T15:31:56.505Z,27.23
2023-01-22T15:34:23.725Z,26.00
2023-01-22T15:36:50.592Z,27.73
2023-01-22T15:39:17.137Z,32.50
2023-01-22T15:41:44.142Z,27.87
2023-01-22T15:44:12.896Z,28.37
2023-01-22T15:46:41.659Z,33.27
2023-01-22T15:49:10.144Z,27.70
2023-01-22T15:51:37.078Z,28.20
2023-01-22T15:54:05.302Z,30.47
2023-01-22T15:56:34.448Z,27.73
2023-01-22T15:59:01.335Z,31.93
2023-01-22T16:01:28.543Z,27.17
2023-01-22T16:03:55.455Z,29.87
2023-01-22T16:06:24.329Z,29.87
2023-01-22T16:08:52.614Z,23.70
2023-01-22T16:11:20.521Z,29.87
2023-01-22T16:13:47.348Z,29.43
2023-01-22T16:16:15.201Z,29.23
2023-01-22T16:18:41.868Z,30.83
2023-01-22T16:21:09.535Z,30.10
2023-01-22T16:23:38.518Z,40.20
2023-01-22T16:26:06.824Z,33.90
2023-01-22T16:28:33.146Z,31.03
2023-01-22T16:31:09.101Z,30.83
2023-01-22T16:33:38.100Z,31.30
2023-01-22T16:36:07.461Z,31.93
2023-01-22T16:38:35.039Z,28.23
2023-01-22T16:41:24.724Z,30.77
2023-01-22T16:44:06.494Z,41.27
2023-01-22T16:46:36.879Z,31.90
2023-01-22T16:49:05.755Z,39.63
2023-01-22T16:51:38.060Z,31.43
2023-01-22T16:54:06.360Z,28.90
2023-01-22T16:56:33.603Z,26.50
2023-01-22T16:59:00.235Z,30.13
2023-01-22T17:01:28.830Z,37.10
2023-01-22T17:03:55.275Z,30.57
2023-01-22T17:06:39.675Z,30.83
2023-01-22T17:09:07.620Z,27.73
2023-01-22T17:11:34.176Z,37.00
2023-01-22T17:14:00.850Z,40.17
2023-01-22T17:16:27.303Z,35.00
2023-01-22T17:18:54.784Z,31.33
2023-01-22T17:21:21.215Z,34.33
2023-01-22T17:23:47.763Z,27.63
2023-01-22T17:26:15.985Z,36.23
2023-01-22T17:28:42.909Z,36.87
2023-01-22T17:31:18.557Z,33.57
2023-01-22T17:33:45.237Z,32.73
2023-01-22T17:36:14.718Z,37.53
2023-01-22T17:38:41.113Z,28.30
2023-01-22T17:41:10.353Z,35.83
2023-01-22T17:43:38.474Z,34.77
2023-01-22T17:46:08.907Z,35.40
2023-01-22T17:48:36.862Z,31.20
2023-01-22T17:51:09.697Z,32.03
2023-01-22T17:53:38.884Z,36.40
2023-01-22T17:56:24.056Z,50.77
2023-01-22T17:58:53.883Z,37.13
2023-01-22T18:01:23.576Z,33.33
2023-01-22T18:03:50.650Z,40.13
2023-01-22T18:06:18.616Z,33.13
2023-01-22T18:08:45.186Z,34.87
2023-01-22T18:11:14.406Z,40.20
2023-01-22T18:13:41.065Z,32.07
2023-01-22T18:16:09.996Z,38.93
2023-01-22T18:18:36.651Z,37.00
2023-01-22T18:21:03.282Z,33.07
2023-01-22T18:23:29.701Z,30.60
2023-01-22T18:25:57.817Z,41.00
2023-01-22T18:28:26.521Z,48.30
2023-01-22T18:30:54.224Z,42.33
2023-01-22T18:33:21.149Z,40.20
2023-01-22T18:35:50.822Z,35.60
2023-01-22T18:38:20.574Z,44.87
2023-01-22T18:40:48.150Z,43.43
2023-01-22T18:43:14.628Z,50.17
2023-01-22T18:45:41.197Z,51.07
2023-01-22T18:48:10.904Z,49.20
2023-01-22T18:50:38.072Z,50.57
2023-01-22T18:53:05.426Z,39.20
2023-01-22T18:55:31.805Z,40.77
2023-01-22T18:58:03.592Z,51.70
2023-01-22T19:00:30.002Z,44.67
2023-01-22T19:02:57.675Z,39.30
2023-01-22T19:05:26.150Z,42.83
2023-01-22T19:07:52.998Z,56.40
2023-01-22T19:10:19.706Z,44.57
2023-01-22T19:12:46.517Z,44.17
2023-01-22T19:15:13.071Z,41.87
2023-01-22T19:17:40.013Z,43.67
2023-01-22T19:20:10.526Z,44.40
2023-01-22T19:22:38.886Z,59.77
2023-01-22T19:25:08.733Z,48.50
2023-01-22T19:27:35.452Z,62.37
2023-01-22T19:30:04.729Z,50.30
2023-01-22T19:32:34.819Z,44.37
2023-01-22T19:35:04.099Z,45.40
2023-01-22T19:37:30.549Z,53.40
2023-01-22T19:40:00.124Z,44.77
2023-01-22T19:42:26.908Z,52.67
2023-01-22T19:44:53.460Z,53.27
2023-01-22T19:47:20.050Z,51.77
2023-01-22T19:49:46.906Z,56.20
2023-01-22T19:52:13.307Z,53.40
2023-01-22T19:54:47.228Z,55.80
2023-01-22T19:57:14.948Z,55.97
2023-01-22T19:59:42.498Z,50.03
2023-01-22T20:02:13.994Z,51.10
2023-01-22T20:04:40.754Z,57.40
2023-01-22T20:07:07.324Z,44.93
2023-01-22T20:09:35.197Z,50.93
2023-01-22T20:12:02.921Z,59.03
2023-01-22T20:14:31.563Z,54.73
2023-01-22T20:17:00.148Z,63.83
2023-01-22T20:19:26.923Z,51.83
2023-01-22T20:21:53.562Z,51.90
2023-01-22T20:24:20.149Z,50.50
2023-01-22T20:26:46.839Z,55.37
2023-01-22T20:29:13.206Z,53.33
2023-01-22T20:31:39.799Z,61.30
2023-01-22T20:34:06.260Z,60.30
2023-01-22T20:36:32.699Z,51.33
2023-01-22T20:39:00.682Z,57.27
2023-01-22T20:41:27.346Z,48.80
2023-01-22T20:43:54.735Z,44.23
2023-01-22T20:46:25.695Z,51.83
2023-01-22T20:48:55.825Z,58.83
2023-01-22T20:51:25.574Z,54.00
2023-01-22T20:53:56.648Z,51.50
2023-01-22T20:56:27.209Z,53.80
2023-01-22T20:58:58.723Z,59.63
2023-01-22T21:01:25.879Z,55.23
2023-01-22T21:03:52.820Z,49.57
2023-01-22T21:06:19.896Z,48.13
2023-01-22T21:08:51.853Z,46.57
2023-01-22T21:11:20.521Z,49.80
2023-01-22T21:13:48.754Z,58.33
2023-01-22T21:16:18.542Z,51.83
2023-01-22T21:18:46.292Z,47.33
2023-01-22T21:21:18.842Z,45.13
2023-01-22T21:23:47.897Z,50.80
2023-01-22T21:26:16.168Z,46.97
2023-01-22T21:28:42.546Z,46.63
2023-01-22T21:31:12.115Z,50.43
2023-01-22T21:33:39.166Z,48.97
2023-01-22T21:36:07.508Z,46.43
2023-01-22T21:38:34.210Z,56.83
2023-01-22T21:41:10.321Z,44.67
2023-01-22T21:43:55.072Z,43.70
2023-01-22T21:46:27.187Z,55.13
2023-01-22T21:48:58.046Z,38.47
2023-01-22T21:51:25.556Z,49.50
2023-01-22T21:53:56.594Z,42.50
2023-01-22T21:56:23.874Z,46.53
2023-01-22T21:58:50.684Z,41.33
2023-01-22T22:01:20.529Z,42.20
2023-01-22T22:03:47.271Z,52.70
2023-01-22T22:06:14.267Z,52.10
2023-01-22T22:08:43.380Z,40.63
2023-01-22T22:11:12.295Z,43.37
2023-01-22T22:13:38.860Z,34.57
2023-01-22T22:16:07.278Z,40.03
2023-01-22T22:18:34.037Z,40.37
2023-01-22T22:21:03.555Z,42.53
2023-01-22T22:23:30.660Z,39.40
2023-01-22T22:25:57.690Z,51.87
2023-01-22T22:28:24.698Z,45.90
2023-01-22T22:30:51.225Z,43.37
2023-01-22T22:33:17.937Z,39.80
2023-01-22T22:35:46.340Z,38.97
2023-01-22T22:38:14.328Z,38.00
2023-01-22T22:40:40.776Z,34.60
2023-01-22T22:43:07.246Z,42.53
2023-01-22T22:45:37.758Z,37.87
2023-01-22T22:48:05.196Z,40.40
2023-01-22T22:50:31.646Z,37.10
2023-01-22T22:52:58.029Z,37.93
2023-01-22T22:55:26.510Z,43.10
2023-01-22T22:57:52.835Z,40.03
2023-01-22T23:00:19.666Z,37.27
2023-01-22T23:02:46.193Z,36.27
2023-01-22T23:05:12.536Z,34.50
2023-01-22T23:07:38.908Z,36.43
2023-01-22T23:10:05.699Z,34.03
2023-01-22T23:12:32.047Z,35.97
2023-01-22T23:14:58.391Z,36.70
2023-01-22T23:17:24.798Z,33.67
2023-01-22T23:19:51.251Z,32.37
2023-01-22T23:22:22.293Z,37.80
2023-01-22T23:24:48.620Z,34.60
2023-01-22T23:27:14.942Z,31.47
2023-01-22T23:29:41.266Z,30.20
2023-01-22T23:32:07.571Z,37.83
2023-01-22T23:34:34.072Z,35.13
2023-01-22T23:37:00.451Z,35.57
2023-01-22T23:39:26.810Z,30.00
2023-01-22T23:41:53.197Z,29.70
2023-01-22T23:44:19.584Z,31.80
2023-01-22T23:46:46.093Z,30.47
2023-01-22T23:49:12.675Z,33.53
2023-01-22T23:51:41.951Z,28.37
2023-01-22T23:54:08.803Z,32.67
2023-01-22T23:56:36.454Z,26.80
2023-01-22T23:59:03.716Z,30.97
